createdAt,value
2023-05-24T00:00:22.822Z,10.50
2023-05-24T00:02:49.962Z,10.00
2023-05-24T00:05:18.722Z,9.73
2023-05-24T00:07:45.693Z,10.23
2023-05-24T00:10:12.533Z,10.30
2023-05-24T00:12:39.222Z,10.90
2023-05-24T00:15:06.621Z,11.47
2023-05-24T00:17:34.759Z,11.97
2023-05-24T00:20:01.540Z,14.37
2023-05-24T00:22:28.250Z,11.57
2023-05-24T00:24:54.928Z,11.77
2023-05-24T00:27:21.587Z,14.47
2023-05-24T00:29:48.185Z,12.53
2023-05-24T00:32:15.052Z,10.67
2023-05-24T00:34:41.804Z,12.73
2023-05-24T00:37:08.537Z,11.40
2023-05-24T00:39:35.343Z,13.27
2023-05-24T00:42:02.395Z,10.57
2023-05-24T00:44:29.594Z,10.73
2023-05-24T00:46:56.734Z,12.70
2023-05-24T00:49:23.850Z,11.77
2023-05-24T00:51:52.460Z,13.43
2023-05-24T00:54:19.302Z,13.93
2023-05-24T00:56:47.445Z,13.13
2023-05-24T00:59:14.585Z,13.63
2023-05-24T01:01:42.048Z,9.90
2023-05-24T01:04:08.920Z,9.20
2023-05-24T01:06:50.225Z,14.47
2023-05-24T01:09:30.833Z,10.17
2023-05-24T01:12:25.793Z,12.57
2023-05-24T01:15:05.020Z,9.97
2023-05-24T01:18:05.524Z,13.37
2023-05-24T01:20:34.341Z,13.43
2023-05-24T01:23:07.295Z,10.87
2023-05-24T01:25:52.535Z,16.57
2023-05-24T01:28:21.265Z,15.00
2023-05-24T01:30:48.420Z,12.80
2023-05-24T01:33:16.073Z,12.67
2023-05-24T01:35:42.878Z,12.07
2023-05-24T01:38:13.234Z,13.63
2023-05-24T01:40:41.711Z,14.73
2023-05-24T01:43:36.112Z,10.77
2023-05-24T01:46:21.495Z,9.80
2023-05-24T01:49:06.754Z,10.23
2023-05-24T01:51:41.442Z,12.43
2023-05-24T01:54:12.359Z,9.00
2023-05-24T01:56:41.173Z,12.30
2023-05-24T01:59:09.022Z,12.33
2023-05-24T02:01:35.947Z,12.33
2023-05-24T02:04:03.197Z,12.03
2023-05-24T02:06:29.898Z,12.07
2023-05-24T02:08:56.572Z,10.47
2023-05-24T02:11:23.431Z,10.77
2023-05-24T02:13:50.142Z,11.60
2023-05-24T02:16:18.175Z,12.33
2023-05-24T02:18:46.767Z,11.10
2023-05-24T02:21:13.953Z,13.40
2023-05-24T02:23:43.488Z,12.23
2023-05-24T02:26:12.615Z,12.80
2023-05-24T02:28:39.296Z,12.90
2023-05-24T02:31:06.307Z,12.33
2023-05-24T02:33:33.803Z,11.67
2023-05-24T02:36:00.727Z,12.57
2023-05-24T02:38:27.450Z,11.07
2023-05-24T02:40:54.150Z,11.20
2023-05-24T02:43:20.808Z,15.47
2023-05-24T02:45:47.596Z,16.43
2023-05-24T02:48:14.291Z,9.47
2023-05-24T02:50:41.133Z,12.37
2023-05-24T02:53:08.789Z,8.47
2023-05-24T02:55:35.513Z,16.30
2023-05-24T02:58:02.918Z,11.87
2023-05-24T03:00:31.040Z,11.80
2023-05-24T03:03:02.618Z,7.90
2023-05-24T03:05:29.546Z,10.53
2023-05-24T03:07:56.744Z,10.27
2023-05-24T03:10:23.569Z,9.70
2023-05-24T03:12:50.347Z,8.83
2023-05-24T03:15:17.091Z,8.73
2023-05-24T03:17:43.774Z,10.97
2023-05-24T03:20:11.722Z,12.83
2023-05-24T03:22:38.884Z,9.70
2023-05-24T03:25:08.727Z,9.80
2023-05-24T03:27:36.590Z,11.50
2023-05-24T03:30:03.749Z,11.90
2023-05-24T03:32:35.138Z,11.47
2023-05-24T03:35:02.643Z,8.93
2023-05-24T03:37:29.421Z,9.07
2023-05-24T03:39:56.062Z,12.70
2023-05-24T03:42:43.006Z,11.10
2023-05-24T03:45:10.890Z,8.83
2023-05-24T03:47:38.193Z,10.63
2023-05-24T03:50:05.418Z,10.60
2023-05-24T03:52:32.140Z,8.43
2023-05-24T03:54:58.825Z,11.13
2023-05-24T03:57:25.564Z,10.10
2023-05-24T03:59:52.731Z,13.40
2023-05-24T04:02:19.442Z,11.30
2023-05-24T04:04:46.281Z,13.40
2023-05-24T04:07:15.367Z,11.67
2023-05-24T04:09:42.878Z,10.23
2023-05-24T04:12:09.652Z,14.67
2023-05-24T04:14:36.402Z,11.60
2023-05-24T04:17:05.741Z,11.70
2023-05-24T04:19:32.567Z,14.50
2023-05-24T04:21:59.694Z,8.30
2023-05-24T04:24:26.492Z,10.60
2023-05-24T04:26:53.289Z,8.80
2023-05-24T04:29:20.021Z,13.90
2023-05-24T04:31:48.905Z,8.90
2023-05-24T04:34:15.775Z,12.00
2023-05-24T04:36:42.863Z,12.80
2023-05-24T04:39:11.411Z,13.07
2023-05-24T04:41:38.681Z,11.30
2023-05-24T04:44:05.424Z,11.10
2023-05-24T04:46:32.101Z,10.60
2023-05-24T04:48:59.128Z,9.33
2023-05-24T04:51:26.040Z,11.40
2023-05-24T04:53:52.698Z,16.60
2023-05-24T04:56:19.600Z,11.23
2023-05-24T04:58:47.616Z,12.23
2023-05-24T05:01:14.439Z,9.00
2023-05-24T05:03:41.512Z,9.77
2023-05-24T05:06:08.335Z,10.07
2023-05-24T05:08:34.991Z,12.47
2023-05-24T05:11:02.830Z,8.30
2023-05-24T05:13:29.569Z,10.97
2023-05-24T05:15:56.257Z,11.03
2023-05-24T05:18:22.881Z,9.40
2023-05-24T05:20:49.559Z,10.70
2023-05-24T05:23:16.368Z,11.30
2023-05-24T05:25:43.105Z,13.73
2023-05-24T05:28:09.850Z,11.23
2023-05-24T05:30:36.621Z,10.90
2023-05-24T05:33:05.882Z,7.83
2023-05-24T05:35:33.350Z,11.53
2023-05-24T05:38:00.083Z,8.90
2023-05-24T05:40:26.772Z,10.23
2023-05-24T05:42:53.566Z,11.07
2023-05-24T05:45:20.357Z,12.77
2023-05-24T05:47:47.125Z,10.00
2023-05-24T05:50:13.894Z,10.10
2023-05-24T05:52:41.058Z,8.13
2023-05-24T05:55:08.768Z,8.00
2023-05-24T05:57:35.539Z,7.33
2023-05-24T06:00:02.566Z,10.33
2023-05-24T06:02:38.746Z,12.00
2023-05-24T06:05:05.904Z,9.47
2023-05-24T06:07:32.856Z,11.80
2023-05-24T06:09:59.667Z,11.07
2023-05-24T06:12:26.735Z,8.03
2023-05-24T06:14:54.240Z,9.13
2023-05-24T06:17:24.222Z,8.00
2023-05-24T06:19:53.673Z,10.83
2023-05-24T06:22:21.587Z,8.63
2023-05-24T06:24:49.229Z,9.80
2023-05-24T06:27:15.977Z,12.57
2023-05-24T06:29:42.698Z,9.40
2023-05-24T06:32:09.395Z,11.83
2023-05-24T06:34:36.136Z,7.60
2023-05-24T06:37:04.157Z,8.03
2023-05-24T06:39:30.925Z,7.50
2023-05-24T06:41:57.689Z,6.80
2023-05-24T06:44:31.918Z,9.33
2023-05-24T06:46:58.744Z,8.00
2023-05-24T06:49:25.833Z,8.43
2023-05-24T06:51:52.917Z,12.00
2023-05-24T06:54:19.890Z,6.90
2023-05-24T06:56:46.702Z,9.27
2023-05-24T06:59:13.481Z,9.57
2023-05-24T07:01:42.729Z,10.63
2023-05-24T07:04:09.969Z,8.93
2023-05-24T07:06:37.629Z,10.23
2023-05-24T07:09:05.031Z,7.63
2023-05-24T07:11:32.074Z,6.20
2023-05-24T07:13:58.866Z,9.03
2023-05-24T07:16:25.591Z,5.73
2023-05-24T07:18:52.403Z,7.33
2023-05-24T07:21:19.111Z,6.87
2023-05-24T07:23:46.039Z,8.93
2023-05-24T07:26:12.815Z,10.27
2023-05-24T07:28:40.502Z,7.67
2023-05-24T07:31:09.903Z,8.60
2023-05-24T07:33:37.922Z,13.03
2023-05-24T07:36:07.112Z,7.40
2023-05-24T07:38:34.867Z,7.40
2023-05-24T07:41:06.328Z,6.10
2023-05-24T07:43:33.324Z,9.07
2023-05-24T07:46:00.055Z,6.30
2023-05-24T07:48:26.971Z,6.60
2023-05-24T07:50:55.005Z,6.00
2023-05-24T07:53:22.960Z,6.83
2023-05-24T07:55:50.405Z,7.30
2023-05-24T07:58:17.062Z,5.53
2023-05-24T08:00:43.755Z,5.30
2023-05-24T08:03:13.447Z,5.23
2023-05-24T08:05:41.597Z,8.67
2023-05-24T08:08:08.446Z,6.10
2023-05-24T08:10:35.182Z,7.17
2023-05-24T08:13:01.943Z,5.73
2023-05-24T08:15:28.873Z,8.60
2023-05-24T08:17:55.571Z,6.37
2023-05-24T08:20:22.359Z,6.67
2023-05-24T08:22:54.830Z,3.87
2023-05-24T08:25:21.529Z,4.80
2023-05-24T08:27:48.233Z,4.70
2023-05-24T08:30:15.057Z,5.93
2023-05-24T08:32:41.961Z,5.67
2023-05-24T08:35:20.291Z,5.50
2023-05-24T08:37:48.957Z,7.07
2023-05-24T08:40:15.872Z,4.63
2023-05-24T08:42:42.810Z,5.23
2023-05-24T08:45:13.076Z,3.93
2023-05-24T08:47:40.693Z,8.73
2023-05-24T08:50:08.611Z,3.70
2023-05-24T08:52:36.494Z,4.27
2023-05-24T08:55:06.862Z,5.93
2023-05-24T08:57:35.736Z,4.10
2023-05-24T09:00:02.549Z,5.03
2023-05-24T09:02:32.313Z,5.30
2023-05-24T09:05:00.170Z,6.97
2023-05-24T09:07:33.045Z,4.50
2023-05-24T09:10:08.516Z,5.20
2023-05-24T09:12:40.538Z,4.30
2023-05-24T09:15:08.887Z,5.33
2023-05-24T09:17:37.353Z,4.40
2023-05-24T09:20:10.002Z,6.50
2023-05-24T09:22:41.836Z,5.97
2023-05-24T09:25:11.327Z,5.77
2023-05-24T09:27:40.567Z,3.77
2023-05-24T09:30:11.019Z,4.30
2023-05-24T09:32:39.801Z,4.97
2023-05-24T09:35:10.419Z,6.10
2023-05-24T09:37:38.777Z,3.60
2023-05-24T09:40:19.355Z,4.57
2023-05-24T09:42:52.755Z,7.18
2023-05-24T09:45:21.319Z,5.72
2023-05-24T09:47:48.284Z,3.15
2023-05-24T09:50:17.436Z,6.25
2023-05-24T09:52:45.166Z,4.60
2023-05-24T09:55:20.188Z,5.05
2023-05-24T09:58:05.383Z,4.75
2023-05-24T10:00:41.331Z,4.28
2023-05-24T10:03:12.948Z,4.85
2023-05-24T10:05:44.420Z,3.90
2023-05-24T10:08:11.989Z,4.75
2023-05-24T10:10:38.619Z,4.82
2023-05-24T10:13:05.333Z,4.95
2023-05-24T10:15:32.110Z,6.15
2023-05-24T10:18:10.425Z,4.03
2023-05-24T10:20:41.134Z,5.53
2023-05-24T10:23:10.397Z,3.78
2023-05-24T10:25:42.912Z,3.47
2023-05-24T10:28:12.960Z,5.07
2023-05-24T10:30:52.817Z,4.82
2023-05-24T10:33:21.395Z,4.20
2023-05-24T10:35:48.562Z,4.22
2023-05-24T10:38:15.486Z,5.25
2023-05-24T10:40:43.610Z,4.45
2023-05-24T10:43:10.439Z,6.07
2023-05-24T10:45:41.328Z,3.92
2023-05-24T10:48:28.270Z,3.58
2023-05-24T10:50:55.557Z,4.22
2023-05-24T10:53:26.266Z,3.22
2023-05-24T10:55:59.153Z,9.52
2023-05-24T10:58:58.147Z,3.47
2023-05-24T11:01:27.710Z,3.72
2023-05-24T11:04:17.061Z,3.55
2023-05-24T11:07:03.753Z,4.63
2023-05-24T11:09:31.738Z,2.90
2023-05-24T11:12:04.203Z,3.85
2023-05-24T11:14:32.110Z,3.75
2023-05-24T11:17:00.342Z,3.80
2023-05-24T11:19:36.180Z,2.88
2023-05-24T11:22:14.949Z,4.47
2023-05-24T11:24:42.704Z,3.80
2023-05-24T11:27:11.916Z,3.17
2023-05-24T11:29:43.443Z,4.80
2023-05-24T11:32:14.277Z,3.45
2023-05-24T11:34:42.021Z,4.40
2023-05-24T11:37:09.395Z,5.20
2023-05-24T11:39:37.482Z,3.75
2023-05-24T11:42:05.127Z,3.42
2023-05-24T11:44:32.573Z,3.08
2023-05-24T11:47:03.399Z,5.15
2023-05-24T11:49:30.280Z,4.32
2023-05-24T11:51:58.595Z,4.45
2023-05-24T11:54:27.040Z,3.92
2023-05-24T11:56:54.776Z,3.13
2023-05-24T11:59:26.598Z,4.35
2023-05-24T12:02:02.579Z,4.85
2023-05-24T12:04:30.466Z,3.97
2023-05-24T12:06:58.021Z,3.63
2023-05-24T12:09:25.571Z,2.88
2023-05-24T12:11:53.465Z,3.58
2023-05-24T12:14:27.620Z,3.88
2023-05-24T12:16:56.302Z,3.35
2023-05-24T12:19:32.877Z,3.90
2023-05-24T12:22:06.803Z,3.83
2023-05-24T12:24:34.247Z,4.90
2023-05-24T12:27:03.022Z,4.22
2023-05-24T12:29:37.741Z,3.30
2023-05-24T12:32:04.980Z,3.70
2023-05-24T12:34:32.462Z,3.17
2023-05-24T12:36:59.924Z,5.33
2023-05-24T12:39:32.082Z,4.77
2023-05-24T12:42:01.534Z,4.07
2023-05-24T12:44:33.942Z,4.37
2023-05-24T12:47:03.512Z,4.73
2023-05-24T12:49:31.868Z,4.13
2023-05-24T12:51:58.934Z,4.97
2023-05-24T12:54:27.834Z,4.60
2023-05-24T12:56:56.898Z,7.13
2023-05-24T12:59:25.538Z,4.77
2023-05-24T13:01:52.817Z,8.80
2023-05-24T13:04:21.915Z,4.73
2023-05-24T13:06:49.361Z,8.83
2023-05-24T13:09:21.014Z,3.53
2023-05-24T13:11:47.758Z,5.03
2023-05-24T13:14:16.479Z,5.30
2023-05-24T13:16:44.290Z,5.63
2023-05-24T13:19:11.893Z,7.40
2023-05-24T13:21:39.129Z,4.57
2023-05-24T13:24:06.927Z,4.73
2023-05-24T13:26:37.909Z,4.97
2023-05-24T13:29:39.271Z,5.20
2023-05-24T13:31:55.480Z,7.27
2023-05-24T13:34:26.186Z,5.03
2023-05-24T13:36:54.130Z,5.93
2023-05-24T13:39:22.290Z,5.33
2023-05-24T13:41:49.702Z,5.53
2023-05-24T13:44:16.958Z,8.33
2023-05-24T13:46:43.931Z,6.90
2023-05-24T13:49:11.842Z,4.23
2023-05-24T13:51:39.067Z,6.53
2023-05-24T13:54:07.429Z,8.43
2023-05-24T13:56:35.017Z,6.77
2023-05-24T13:59:03.759Z,7.60
2023-05-24T14:01:31.300Z,9.17
2023-05-24T14:03:58.763Z,7.53
2023-05-24T14:06:25.525Z,5.37
2023-05-24T14:08:52.440Z,8.40
2023-05-24T14:11:19.706Z,6.70
2023-05-24T14:16:16.877Z,6.30
2023-05-24T14:18:43.914Z,5.33
2023-05-24T14:21:10.713Z,7.93
2023-05-24T14:23:37.543Z,9.10
2023-05-24T14:26:04.294Z,7.63
2023-05-24T14:28:31.196Z,6.67
2023-05-24T14:30:57.911Z,10.63
2023-05-24T14:33:24.727Z,8.67
2023-05-24T14:35:51.726Z,7.67
2023-05-24T14:38:18.660Z,8.00
2023-05-24T14:40:48.036Z,8.63
2023-05-24T14:43:15.063Z,7.03
2023-05-24T14:45:42.921Z,8.50
2023-05-24T14:48:11.585Z,8.47
2023-05-24T14:50:39.854Z,9.73
2023-05-24T14:53:12.996Z,7.70
2023-05-24T14:55:42.198Z,9.00
2023-05-24T14:58:11.412Z,10.07
2023-05-24T15:00:38.998Z,7.57
2023-05-24T15:03:06.254Z,11.83
2023-05-24T15:05:33.834Z,8.87
2023-05-24T15:08:00.930Z,7.33
2023-05-24T15:10:27.790Z,10.37
2023-05-24T15:12:54.523Z,11.43
2023-05-24T15:15:22.501Z,9.23
2023-05-24T15:17:49.473Z,8.00
2023-05-24T15:20:16.350Z,9.43
2023-05-24T15:22:43.233Z,8.03
2023-05-24T15:25:10.654Z,7.87
2023-05-24T15:27:37.849Z,8.63
2023-05-24T15:30:05.194Z,7.93
2023-05-24T15:32:32.243Z,8.40
2023-05-24T15:35:00.386Z,12.93
2023-05-24T15:37:27.395Z,10.50
2023-05-24T15:39:54.587Z,10.23
2023-05-24T15:42:23.538Z,9.77
2023-05-24T15:44:50.594Z,10.60
2023-05-24T15:47:18.671Z,13.67
2023-05-24T15:49:47.541Z,11.17
2023-05-24T15:52:14.302Z,10.60
2023-05-24T15:54:41.174Z,8.77
2023-05-24T15:57:07.926Z,8.23
2023-05-24T15:59:36.842Z,12.07
2023-05-24T16:02:04.005Z,9.97
2023-05-24T16:04:30.796Z,11.33
2023-05-24T16:06:57.700Z,12.00
2023-05-24T16:09:24.489Z,11.77
2023-05-24T16:11:51.648Z,10.80
2023-05-24T16:14:18.423Z,12.07
2023-05-24T16:16:45.244Z,12.87
2023-05-24T16:19:12.154Z,13.33
2023-05-24T16:21:39.156Z,10.77
2023-05-24T16:24:06.149Z,12.03
2023-05-24T16:26:33.102Z,11.77
2023-05-24T16:28:59.980Z,11.93
2023-05-24T16:31:26.838Z,9.73
2023-05-24T16:33:53.901Z,12.07
2023-05-24T16:36:21.237Z,12.77
2023-05-24T16:38:48.121Z,10.77
2023-05-24T16:41:14.888Z,10.50
2023-05-24T16:43:41.683Z,10.43
2023-05-24T16:46:08.597Z,11.73
2023-05-24T16:48:35.518Z,10.50
2023-05-24T16:51:02.754Z,10.37
2023-05-24T16:53:29.841Z,8.90
2023-05-24T16:55:57.873Z,10.53
2023-05-24T16:58:28.034Z,10.97
2023-05-24T17:00:55.068Z,9.40
2023-05-24T17:03:27.624Z,11.40
2023-05-24T17:05:56.713Z,8.23
2023-05-24T17:08:25.728Z,9.20
2023-05-24T17:10:56.167Z,12.23
2023-05-24T17:13:23.804Z,11.93
2023-05-24T17:15:53.890Z,10.13
2023-05-24T17:18:27.731Z,8.57
2023-05-24T17:21:02.261Z,9.17
2023-05-24T17:23:33.302Z,9.70
2023-05-24T17:26:01.402Z,8.47
2023-05-24T17:28:28.551Z,11.60
2023-05-24T17:31:00.961Z,10.47
2023-05-24T17:33:31.234Z,11.10
2023-05-24T17:35:58.180Z,12.67
2023-05-24T17:38:25.317Z,8.27
2023-05-24T17:40:59.491Z,8.57
2023-05-24T17:43:32.142Z,10.73
2023-05-24T17:46:04.234Z,12.83
2023-05-24T17:48:41.070Z,8.20
2023-05-24T17:51:09.374Z,11.80
2023-05-24T17:53:38.041Z,10.50
2023-05-24T17:56:05.658Z,11.60
2023-05-24T17:58:36.054Z,10.17
2023-05-24T18:01:08.108Z,13.07
2023-05-24T18:03:39.118Z,8.40
2023-05-24T18:06:07.112Z,8.20
2023-05-24T18:08:37.126Z,10.63
2023-05-24T18:11:10.186Z,10.93
2023-05-24T18:13:38.993Z,10.73
2023-05-24T18:16:10.772Z,9.23
2023-05-24T18:18:37.887Z,11.23
2023-05-24T18:21:05.352Z,9.23
2023-05-24T18:23:34.146Z,9.47
2023-05-24T18:26:03.096Z,13.40
2023-05-24T18:28:30.029Z,12.70
2023-05-24T18:30:56.849Z,13.70
2023-05-24T18:33:23.962Z,10.57
2023-05-24T18:35:50.966Z,10.87
2023-05-24T18:38:17.746Z,8.93
2023-05-24T18:40:44.483Z,11.50
2023-05-24T18:43:11.253Z,9.90
2023-05-24T18:45:38.005Z,8.67
2023-05-24T18:48:06.024Z,10.47
2023-05-24T18:50:32.926Z,9.30
2023-05-24T18:52:59.847Z,9.63
2023-05-24T18:55:26.604Z,10.83
2023-05-24T18:57:53.417Z,10.00
2023-05-24T19:00:22.775Z,7.27
2023-05-24T19:02:49.790Z,11.27
2023-05-24T19:05:16.782Z,10.27
2023-05-24T19:07:43.619Z,10.03
2023-05-24T19:10:10.819Z,11.53
2023-05-24T19:12:37.593Z,10.60
2023-05-24T19:15:04.844Z,8.30
2023-05-24T19:17:32.317Z,10.43
2023-05-24T19:19:59.233Z,10.60
2023-05-24T19:22:27.582Z,11.67
2023-05-24T19:24:55.945Z,7.73
2023-05-24T19:27:23.078Z,8.57
2023-05-24T19:29:50.156Z,9.07
2023-05-24T19:32:17.224Z,8.27
2023-05-24T19:34:44.027Z,11.00
2023-05-24T19:37:10.784Z,10.77
2023-05-24T19:39:37.747Z,10.67
2023-05-24T19:42:04.883Z,10.20
2023-05-24T19:44:31.586Z,11.93
2023-05-24T19:46:58.360Z,7.43
2023-05-24T19:49:25.142Z,12.90
2023-05-24T19:51:52.208Z,8.47
2023-05-24T19:54:19.049Z,10.10
2023-05-24T19:56:49.693Z,9.30
2023-05-24T19:59:17.331Z,11.33
2023-05-24T20:01:44.480Z,12.67
2023-05-24T20:04:12.330Z,10.57
2023-05-24T20:06:39.408Z,10.33
2023-05-24T20:09:06.398Z,11.10
2023-05-24T20:11:33.152Z,8.53
2023-05-24T20:14:00.058Z,11.20
2023-05-24T20:16:27.412Z,12.63
2023-05-24T20:18:54.127Z,11.73
2023-05-24T20:21:21.151Z,10.77
2023-05-24T20:23:49.756Z,10.57
2023-05-24T20:26:16.455Z,10.90
2023-05-24T20:28:43.332Z,9.50
2023-05-24T20:31:10.136Z,11.33
2023-05-24T20:33:38.464Z,8.47
2023-05-24T20:36:05.756Z,8.70
2023-05-24T20:38:32.609Z,11.23
2023-05-24T20:40:59.956Z,8.00
2023-05-24T20:43:26.696Z,12.50
2023-05-24T20:45:54.147Z,10.80
2023-05-24T20:48:21.105Z,12.43
2023-05-24T20:50:48.132Z,9.57
2023-05-24T20:53:14.860Z,9.73
2023-05-24T20:55:41.856Z,7.93
2023-05-24T20:58:08.760Z,12.80
2023-05-24T21:00:36.306Z,11.67
2023-05-24T21:03:04.756Z,9.57
2023-05-24T21:05:31.581Z,7.57
2023-05-24T21:07:58.326Z,7.07
2023-05-24T21:10:27.881Z,10.10
2023-05-24T21:12:54.725Z,7.27
2023-05-24T21:15:21.473Z,10.63
2023-05-24T21:17:48.240Z,10.40
2023-05-24T21:20:15.064Z,8.30
2023-05-24T21:22:42.142Z,11.10
2023-05-24T21:25:09.513Z,10.90
2023-05-24T21:27:36.301Z,10.83
2023-05-24T21:30:03.373Z,13.23
2023-05-24T21:32:31.260Z,9.90
2023-05-24T21:34:58.062Z,7.97
2023-05-24T21:37:25.272Z,9.73
2023-05-24T21:39:52.004Z,9.37
2023-05-24T21:42:18.721Z,8.83
2023-05-24T21:44:45.460Z,11.20
2023-05-24T21:47:12.376Z,9.50
2023-05-24T21:49:39.214Z,8.83
2023-05-24T21:52:05.931Z,10.83
2023-05-24T21:54:32.629Z,8.87
2023-05-24T21:56:59.419Z,10.47
2023-05-24T21:59:26.184Z,10.23
2023-05-24T22:01:52.934Z,7.50
2023-05-24T22:04:19.775Z,10.40
2023-05-24T22:06:46.530Z,12.73
2023-05-24T22:09:13.636Z,10.03
2023-05-24T22:11:41.358Z,10.10
2023-05-24T22:14:08.375Z,11.70
2023-05-24T22:16:35.159Z,10.97
2023-05-24T22:19:03.661Z,10.50
2023-05-24T22:21:33.413Z,13.00
2023-05-24T22:24:00.650Z,9.70
2023-05-24T22:26:30.632Z,11.13
2023-05-24T22:29:00.834Z,11.03
2023-05-24T22:31:29.537Z,9.03
2023-05-24T22:34:00.973Z,8.70
2023-05-24T22:36:35.148Z,10.17
2023-05-24T22:39:01.995Z,12.33
2023-05-24T22:41:28.882Z,12.10
2023-05-24T22:43:56.948Z,6.87
2023-05-24T22:46:24.295Z,9.73
2023-05-24T22:48:52.289Z,11.17
2023-05-24T22:51:22.590Z,9.33
2023-05-24T22:53:49.515Z,10.97
2023-05-24T22:56:17.889Z,11.40
2023-05-24T22:58:44.677Z,7.57
2023-05-24T23:01:11.571Z,9.67
2023-05-24T23:03:38.448Z,11.07
2023-05-24T23:06:05.638Z,9.97
2023-05-24T23:08:32.978Z,7.23
2023-05-24T23:11:00.217Z,9.17
2023-05-24T23:13:33.300Z,9.97
2023-05-24T23:16:00.697Z,8.40
2023-05-24T23:18:27.984Z,8.23
2023-05-24T23:20:56.050Z,10.73
2023-05-24T23:23:23.947Z,6.93
2023-05-24T23:25:51.144Z,9.90
2023-05-24T23:28:17.950Z,9.27
2023-05-24T23:30:44.759Z,7.83
2023-05-24T23:33:11.681Z,10.00
2023-05-24T23:35:39.666Z,8.73
2023-05-24T23:38:06.737Z,9.40
2023-05-24T23:40:34.435Z,8.03
2023-05-24T23:43:01.251Z,10.03
2023-05-24T23:45:28.014Z,13.40
2023-05-24T23:47:55.045Z,6.37
2023-05-24T23:50:22.548Z,11.40
2023-05-24T23:52:49.793Z,11.57
2023-05-24T23:55:17.140Z,11.60
2023-05-24T23:57:45.811Z,11.33
